createdAt,value
2022-11-14T00:01:02.528Z,4.97
2022-11-14T00:03:29.208Z,5.25
2022-11-14T00:05:58.105Z,5.82
2022-11-14T00:08:28.325Z,5.45
2022-11-14T00:10:56.549Z,5.82
2022-11-14T00:13:23.334Z,5.30
2022-11-14T00:15:54.638Z,5.38
2022-11-14T00:18:21.987Z,5.47
2022-11-14T00:20:50.560Z,5.05
2022-11-14T00:23:18.059Z,5.68
2022-11-14T00:25:45.833Z,5.47
2022-11-14T00:28:13.295Z,5.47
2022-11-14T00:30:40.008Z,5.75
2022-11-14T00:33:08.167Z,6.03
2022-11-14T00:35:35.942Z,5.45
2022-11-14T00:38:02.658Z,6.68
2022-11-14T00:40:29.390Z,5.43
2022-11-14T00:42:56.425Z,5.55
2022-11-14T00:45:23.160Z,6.30
2022-11-14T00:47:50.004Z,5.90
2022-11-14T00:50:17.205Z,5.30
2022-11-14T00:52:44.954Z,5.75
2022-11-14T00:55:11.854Z,6.43
2022-11-14T00:57:39.888Z,6.25
2022-11-14T01:00:08.213Z,6.32
2022-11-14T01:02:36.523Z,5.97
2022-11-14T01:05:06.304Z,6.15
2022-11-14T01:07:33.006Z,5.72
2022-11-14T01:09:59.665Z,5.65
2022-11-14T01:12:26.338Z,5.57
2022-11-14T01:14:53.095Z,5.97
2022-11-14T01:17:19.871Z,6.38
2022-11-14T01:19:46.561Z,6.07
2022-11-14T01:22:13.270Z,5.75
2022-11-14T01:24:39.933Z,5.43
2022-11-14T01:27:06.662Z,5.72
2022-11-14T01:29:33.396Z,5.57
2022-11-14T01:32:00.073Z,5.90
2022-11-14T01:34:26.871Z,5.53
2022-11-14T01:36:53.753Z,5.80
2022-11-14T01:39:22.003Z,6.22
2022-11-14T01:41:50.089Z,5.50
2022-11-14T01:44:37.965Z,5.28
2022-11-14T01:47:05.265Z,5.95
2022-11-14T01:49:38.803Z,5.68
2022-11-14T01:52:18.894Z,4.65
2022-11-14T01:54:49.793Z,4.97
2022-11-14T01:57:20.260Z,5.00
2022-11-14T01:59:51.774Z,5.68
2022-11-14T02:02:25.412Z,5.63
2022-11-14T02:04:58.916Z,3.90
2022-11-14T02:07:29.589Z,4.60
2022-11-14T02:09:57.312Z,5.53
2022-11-14T02:12:24.270Z,5.13
2022-11-14T02:14:56.346Z,5.50
2022-11-14T02:17:31.331Z,5.70
2022-11-14T02:20:11.769Z,5.20
2022-11-14T02:22:41.038Z,5.88
2022-11-14T02:25:09.266Z,4.95
2022-11-14T02:27:37.883Z,5.30
2022-11-14T02:30:11.769Z,5.78
2022-11-14T02:32:57.370Z,4.85
2022-11-14T02:35:26.378Z,5.22
2022-11-14T02:37:53.561Z,5.10
2022-11-14T02:40:22.392Z,4.90
2022-11-14T02:42:49.126Z,5.20
2022-11-14T02:45:15.854Z,5.13
2022-11-14T02:47:43.413Z,4.82
2022-11-14T02:50:10.484Z,5.20
2022-11-14T02:52:37.224Z,5.35
2022-11-14T02:55:05.388Z,5.78
2022-11-14T02:57:33.411Z,5.90
2022-11-14T03:00:00.137Z,5.28
2022-11-14T03:02:28.676Z,4.97
2022-11-14T03:04:55.409Z,5.18
2022-11-14T03:07:22.345Z,5.45
2022-11-14T03:09:49.426Z,5.60
2022-11-14T03:12:17.919Z,5.13
2022-11-14T03:14:44.751Z,5.47
2022-11-14T03:17:11.505Z,5.68
2022-11-14T03:19:38.804Z,5.63
2022-11-14T03:22:05.747Z,6.00
2022-11-14T03:24:32.572Z,5.18
2022-11-14T03:26:59.269Z,5.25
2022-11-14T03:29:25.978Z,4.78
2022-11-14T03:31:52.720Z,5.00
2022-11-14T03:34:19.401Z,5.10
2022-11-14T03:36:47.083Z,5.82
2022-11-14T03:39:13.825Z,4.97
2022-11-14T03:41:41.881Z,4.78
2022-11-14T03:44:09.496Z,5.05
2022-11-14T03:46:36.212Z,4.93
2022-11-14T03:49:03.185Z,4.97
2022-11-14T03:51:29.960Z,4.70
2022-11-14T03:53:57.926Z,5.45
2022-11-14T03:56:24.595Z,4.93
2022-11-14T03:58:51.403Z,4.88
2022-11-14T04:01:18.163Z,5.53
2022-11-14T04:03:44.912Z,5.22
2022-11-14T04:06:11.604Z,5.60
2022-11-14T04:08:41.208Z,5.50
2022-11-14T04:11:08.443Z,5.35
2022-11-14T04:13:36.302Z,5.47
2022-11-14T04:16:03.245Z,4.75
2022-11-14T04:18:30.283Z,5.70
2022-11-14T04:20:57.524Z,5.85
2022-11-14T04:23:24.283Z,5.38
2022-11-14T04:25:51.317Z,5.22
2022-11-14T04:28:18.492Z,5.47
2022-11-14T04:30:46.385Z,5.53
2022-11-14T04:33:13.190Z,5.35
2022-11-14T04:35:39.893Z,5.00
2022-11-14T04:38:06.673Z,5.47
2022-11-14T04:40:33.694Z,5.40
2022-11-14T04:43:00.392Z,5.70
2022-11-14T04:45:27.195Z,5.65
2022-11-14T04:47:53.933Z,5.75
2022-11-14T04:50:21.860Z,5.25
2022-11-14T04:52:52.130Z,5.80
2022-11-14T04:55:18.864Z,5.85
2022-11-14T04:57:45.562Z,6.15
2022-11-14T05:00:12.978Z,5.45
2022-11-14T05:02:40.760Z,6.03
2022-11-14T05:05:07.825Z,6.32
2022-11-14T05:07:35.012Z,6.72
2022-11-14T05:10:01.826Z,8.05
2022-11-14T05:12:29.892Z,7.40
2022-11-14T05:14:56.769Z,8.00
2022-11-14T05:17:23.501Z,8.13
2022-11-14T05:19:50.396Z,8.55
2022-11-14T05:22:17.372Z,8.73
2022-11-14T05:24:44.062Z,8.13
2022-11-14T05:27:10.776Z,8.70
2022-11-14T05:29:38.528Z,8.80
2022-11-14T05:32:05.449Z,9.65
2022-11-14T05:34:32.194Z,9.27
2022-11-14T05:36:58.909Z,8.73
2022-11-14T05:39:27.808Z,10.02
2022-11-14T05:41:55.844Z,9.20
2022-11-14T05:44:22.528Z,9.25
2022-11-14T05:46:49.263Z,12.10
2022-11-14T05:49:21.791Z,11.52
2022-11-14T05:51:48.909Z,13.77
2022-11-14T05:54:15.717Z,14.98
2022-11-14T05:56:43.998Z,15.43
2022-11-14T05:59:11.972Z,14.48
2022-11-14T06:01:38.914Z,14.50
2022-11-14T06:04:07.100Z,15.90
2022-11-14T06:06:34.419Z,17.52
2022-11-14T06:09:02.527Z,18.20
2022-11-14T06:11:29.265Z,19.05
2022-11-14T06:13:56.073Z,21.42
2022-11-14T06:16:22.823Z,19.98
2022-11-14T06:18:53.006Z,21.88
2022-11-14T06:21:22.125Z,23.55
2022-11-14T06:23:49.673Z,23.15
2022-11-14T06:26:33.209Z,22.60
2022-11-14T06:29:01.474Z,22.40
2022-11-14T06:31:29.652Z,23.35
2022-11-14T06:33:56.981Z,21.00
2022-11-14T06:36:26.242Z,22.70
2022-11-14T06:38:53.434Z,22.27
2022-11-14T06:41:23.232Z,23.85
2022-11-14T06:43:53.769Z,23.33
2022-11-14T06:46:22.920Z,24.33
2022-11-14T06:48:52.553Z,24.27
2022-11-14T06:51:20.810Z,24.17
2022-11-14T06:53:47.540Z,25.15
2022-11-14T06:56:17.300Z,23.40
2022-11-14T06:58:46.367Z,24.75
2022-11-14T07:01:16.255Z,24.15
2022-11-14T07:03:43.999Z,23.92
2022-11-14T07:06:13.682Z,22.83
2022-11-14T07:08:40.699Z,24.42
2022-11-14T07:11:11.356Z,24.08
2022-11-14T07:13:38.790Z,23.00
2022-11-14T07:16:06.995Z,23.33
2022-11-14T07:18:35.373Z,23.48
2022-11-14T07:21:05.754Z,23.30
2022-11-14T07:23:34.022Z,25.40
2022-11-14T07:26:08.781Z,24.08
2022-11-14T07:28:36.439Z,25.15
2022-11-14T07:31:04.417Z,24.20
2022-11-14T07:33:31.947Z,25.33
2022-11-14T07:35:58.700Z,23.50
2022-11-14T07:38:25.489Z,22.40
2022-11-14T07:41:00.044Z,23.40
2022-11-14T07:43:28.104Z,24.20
2022-11-14T07:45:59.257Z,23.27
2022-11-14T07:48:29.151Z,22.67
2022-11-14T07:51:03.035Z,22.08
2022-11-14T07:53:30.462Z,22.55
2022-11-14T07:56:01.729Z,22.65
2022-11-14T07:58:30.349Z,22.30
2022-11-14T08:01:02.403Z,21.63
2022-11-14T08:03:29.197Z,21.20
2022-11-14T08:06:10.334Z,21.58
2022-11-14T08:08:37.537Z,20.83
2022-11-14T08:11:04.910Z,20.85
2022-11-14T08:13:33.761Z,23.23
2022-11-14T08:16:11.964Z,21.00
2022-11-14T08:18:40.040Z,20.20
2022-11-14T08:21:07.650Z,21.17
2022-11-14T08:23:34.452Z,20.20
2022-11-14T08:26:02.526Z,21.58
2022-11-14T08:28:29.615Z,19.95
2022-11-14T08:31:01.426Z,19.77
2022-11-14T08:33:30.337Z,19.40
2022-11-14T08:36:04.026Z,20.45
2022-11-14T08:38:32.249Z,19.98
2022-11-14T08:41:00.451Z,18.48
2022-11-14T08:43:27.345Z,17.73
2022-11-14T08:46:01.468Z,18.10
2022-11-14T08:48:32.014Z,18.15
2022-11-14T08:51:03.705Z,18.67
2022-11-14T08:53:31.008Z,17.98
2022-11-14T08:55:57.721Z,17.08
2022-11-14T08:58:24.779Z,18.15
2022-11-14T09:00:52.674Z,16.35
2022-11-14T09:03:20.160Z,18.40
2022-11-14T09:05:52.288Z,17.40
2022-11-14T09:08:19.020Z,16.65
2022-11-14T09:10:45.745Z,16.70
2022-11-14T09:13:12.451Z,15.73
2022-11-14T09:15:40.160Z,14.63
2022-11-14T09:18:07.144Z,16.38
2022-11-14T09:20:38.808Z,15.15
2022-11-14T09:23:06.682Z,13.85
2022-11-14T09:25:35.811Z,14.77
2022-11-14T09:28:07.299Z,14.18
2022-11-14T09:30:35.963Z,14.65
2022-11-14T09:33:11.084Z,14.25
2022-11-14T09:35:41.432Z,13.55
2022-11-14T09:38:12.217Z,13.88
2022-11-14T09:40:51.828Z,13.77
2022-11-14T09:43:30.775Z,13.43
2022-11-14T09:45:57.729Z,13.60
2022-11-14T09:48:30.134Z,13.18
2022-11-14T09:51:09.522Z,12.50
2022-11-14T09:53:56.805Z,12.40
2022-11-14T09:56:26.633Z,13.13
2022-11-14T09:58:56.545Z,13.70
2022-11-14T10:01:55.140Z,13.30
2022-11-14T10:04:51.201Z,12.57
2022-11-14T10:07:46.379Z,12.40
2022-11-14T10:10:15.891Z,12.48
2022-11-14T10:13:21.453Z,12.82
2022-11-14T10:16:07.393Z,12.57
2022-11-14T10:19:11.768Z,13.40
2022-11-14T10:21:49.713Z,13.18
2022-11-14T10:24:39.763Z,12.95
2022-11-14T10:27:14.853Z,13.13
2022-11-14T10:30:10.844Z,14.88
2022-11-14T10:32:50.589Z,13.95
2022-11-14T10:35:34.842Z,14.65
2022-11-14T10:38:21.977Z,16.08
2022-11-14T10:40:53.187Z,17.15
2022-11-14T10:43:39.725Z,16.73
2022-11-14T10:46:20.829Z,14.93
2022-11-14T10:48:56.274Z,17.50
2022-11-14T10:51:38.843Z,17.23
2022-11-14T10:54:36.316Z,17.73
2022-11-14T10:57:22.757Z,17.77
2022-11-14T10:59:51.277Z,17.67
2022-11-14T11:02:22.101Z,18.08
2022-11-14T11:04:48.776Z,19.15
2022-11-14T11:08:02.969Z,16.98
2022-11-14T11:11:03.116Z,18.58
2022-11-14T11:13:40.067Z,18.88
2022-11-14T11:16:11.215Z,19.52
2022-11-14T11:18:38.015Z,19.83
2022-11-14T11:21:17.157Z,20.63
2022-11-14T11:23:57.644Z,19.63
2022-11-14T11:26:30.456Z,21.15
2022-11-14T11:29:06.676Z,20.60
2022-11-14T11:31:54.151Z,21.42
2022-11-14T11:34:28.332Z,19.33
2022-11-14T11:39:37.581Z,21.95
2022-11-14T11:42:10.757Z,21.73
2022-11-14T11:44:45.982Z,21.40
2022-11-14T11:47:17.058Z,21.98
2022-11-14T11:49:54.329Z,22.98
2022-11-14T11:52:41.160Z,20.58
2022-11-14T11:55:45.084Z,21.33
2022-11-14T11:58:25.009Z,20.65
2022-11-14T12:00:56.547Z,21.83
2022-11-14T12:03:25.400Z,22.30
2022-11-14T12:06:13.840Z,21.35
2022-11-14T12:09:21.973Z,20.40
2022-11-14T12:11:57.127Z,22.02
2022-11-14T12:14:48.776Z,20.75
2022-11-14T12:17:38.932Z,20.15
2022-11-14T12:20:29.667Z,20.42
2022-11-14T12:23:27.136Z,20.90
2022-11-14T12:26:28.463Z,20.40
2022-11-14T12:29:10.738Z,19.50
2022-11-14T12:31:40.053Z,21.15
2022-11-14T12:34:28.637Z,19.75
2022-11-14T12:36:55.727Z,19.58
2022-11-14T12:39:30.798Z,21.67
2022-11-14T12:42:03.877Z,20.65
2022-11-14T12:44:30.630Z,20.25
2022-11-14T12:47:03.424Z,19.60
2022-11-14T12:49:37.402Z,21.02
2022-11-14T12:52:04.435Z,20.17
2022-11-14T12:54:46.464Z,21.73
2022-11-14T12:57:44.560Z,21.33
2022-11-14T13:00:13.065Z,19.98
2022-11-14T13:03:14.210Z,20.45
2022-11-14T13:06:03.318Z,20.13
2022-11-14T13:08:42.124Z,20.00
2022-11-14T13:11:59.177Z,19.52
2022-11-14T13:14:45.499Z,20.42
2022-11-14T13:17:36.573Z,19.45
2022-11-14T13:20:40.793Z,18.73
2022-11-14T13:23:42.464Z,14.67
2022-11-14T13:26:12.086Z,18.40
2022-11-14T13:28:38.753Z,19.65
2022-11-14T13:31:17.609Z,19.45
2022-11-14T13:33:51.159Z,20.65
2022-11-14T13:36:40.960Z,19.55
2022-11-14T13:39:10.632Z,19.52
2022-11-14T13:41:52.437Z,19.63
2022-11-14T13:44:34.131Z,20.00
2022-11-14T13:47:18.705Z,19.17
2022-11-14T13:50:03.973Z,19.63
2022-11-14T13:52:38.442Z,19.40
2022-11-14T13:55:07.601Z,19.85
2022-11-14T13:57:55.524Z,20.55
2022-11-14T14:00:22.409Z,19.90
2022-11-14T14:03:15.775Z,20.98
2022-11-14T14:06:10.672Z,19.90
2022-11-14T14:08:53.184Z,21.27
2022-11-14T14:11:59.349Z,21.83
2022-11-14T14:15:11.109Z,21.10
2022-11-14T14:17:52.978Z,21.45
2022-11-14T14:20:30.445Z,20.88
2022-11-14T14:23:08.334Z,21.27
2022-11-14T14:25:47.837Z,21.08
2022-11-14T14:28:43.015Z,22.00
2022-11-14T14:31:11.578Z,20.88
2022-11-14T14:33:46.869Z,19.52
2022-11-14T14:36:19.409Z,21.35
2022-11-14T14:38:46.685Z,22.65
2022-11-14T14:41:16.148Z,20.77
2022-11-14T14:43:49.544Z,20.67
2022-11-14T14:46:17.156Z,22.00
2022-11-14T14:48:44.485Z,21.23
2022-11-14T14:51:30.674Z,21.23
2022-11-14T14:53:57.823Z,21.52
2022-11-14T14:56:26.688Z,21.08
2022-11-14T14:58:53.443Z,22.83
2022-11-14T15:01:35.864Z,23.20
2022-11-14T15:04:07.951Z,22.55
2022-11-14T15:06:39.207Z,22.60
2022-11-14T15:09:20.423Z,20.38
2022-11-14T15:11:56.985Z,22.25
2022-11-14T15:14:30.073Z,22.85
2022-11-14T15:16:58.163Z,21.90
2022-11-14T15:19:28.972Z,24.08
2022-11-14T15:22:03.149Z,21.92
2022-11-14T15:26:57.144Z,20.52
2022-11-14T15:29:26.831Z,21.05
2022-11-14T15:31:57.961Z,20.42
2022-11-14T15:34:29.210Z,22.50
2022-11-14T15:37:19.252Z,21.50
2022-11-14T15:39:47.601Z,21.20
2022-11-14T15:42:29.498Z,21.15
2022-11-14T15:44:56.494Z,19.27
2022-11-14T15:47:28.633Z,22.17
2022-11-14T15:50:03.076Z,21.55
2022-11-14T15:52:38.391Z,21.23
2022-11-14T15:55:14.066Z,21.88
2022-11-14T15:57:42.037Z,19.17
2022-11-14T16:00:16.225Z,19.77
2022-11-14T16:05:28.607Z,20.05
2022-11-14T16:07:56.185Z,19.63
2022-11-14T16:10:25.452Z,19.98
2022-11-14T16:12:52.965Z,21.33
2022-11-14T16:15:24.053Z,20.30
2022-11-14T16:17:51.134Z,21.05
2022-11-14T16:20:26.315Z,20.27
2022-11-14T16:22:53.728Z,19.80
2022-11-14T16:25:22.063Z,21.35
2022-11-14T16:27:49.005Z,21.45
2022-11-14T16:30:18.639Z,19.58
2022-11-14T16:32:48.003Z,19.90
2022-11-14T16:35:23.443Z,19.48
2022-11-14T16:37:50.765Z,19.25
2022-11-14T16:40:23.109Z,18.17
2022-11-14T16:42:50.371Z,18.38
2022-11-14T16:45:20.197Z,18.00
2022-11-14T16:47:47.723Z,17.15
2022-11-14T16:50:14.619Z,18.55
2022-11-14T16:52:41.403Z,19.30
2022-11-14T16:55:10.156Z,16.58
2022-11-14T16:57:41.207Z,17.25
2022-11-14T17:00:12.467Z,16.13
2022-11-14T17:02:44.066Z,14.88
2022-11-14T17:05:10.847Z,10.63
2022-11-14T17:07:37.643Z,9.52
2022-11-14T17:10:05.807Z,8.98
2022-11-14T17:12:33.699Z,9.57
2022-11-14T17:15:00.805Z,15.18
2022-11-14T17:17:28.970Z,9.18
2022-11-14T17:19:55.651Z,9.70
2022-11-14T17:22:22.750Z,9.85
2022-11-14T17:24:49.450Z,9.43
2022-11-14T17:27:17.865Z,9.95
2022-11-14T17:29:44.920Z,9.88
2022-11-14T17:32:11.669Z,9.68
2022-11-14T17:34:39.465Z,10.27
2022-11-14T17:37:06.196Z,10.27
2022-11-14T17:39:35.127Z,10.35
2022-11-14T17:42:03.038Z,10.00
2022-11-14T17:44:30.056Z,10.45
2022-11-14T17:46:56.723Z,10.68
2022-11-14T17:49:26.408Z,10.18
2022-11-14T17:51:53.152Z,10.13
2022-11-14T17:54:19.895Z,10.82
2022-11-14T17:56:50.887Z,10.48
2022-11-14T17:59:21.665Z,10.68
2022-11-14T18:01:49.132Z,11.15
2022-11-14T18:04:17.521Z,11.27
2022-11-14T18:06:44.520Z,11.23
2022-11-14T18:09:14.447Z,10.45
2022-11-14T18:11:41.563Z,11.20
2022-11-14T18:14:08.311Z,10.63
2022-11-14T18:17:05.273Z,11.95
2022-11-14T18:19:23.538Z,11.75
2022-11-14T18:21:53.565Z,11.38
2022-11-14T18:24:21.671Z,9.93
2022-11-14T18:26:48.486Z,11.25
2022-11-14T18:29:15.741Z,10.63
2022-11-14T18:31:42.453Z,13.63
2022-11-14T18:34:09.308Z,11.75
2022-11-14T18:36:37.321Z,11.85
2022-11-14T18:39:04.448Z,11.10
2022-11-14T18:41:32.301Z,11.35
2022-11-14T18:43:59.275Z,11.57
2022-11-14T18:46:26.635Z,13.05
2022-11-14T18:48:58.023Z,11.32
2022-11-14T18:51:28.185Z,11.23
2022-11-14T18:53:59.439Z,11.00
2022-11-14T18:56:26.775Z,11.32
2022-11-14T18:58:55.334Z,11.95
2022-11-14T19:01:26.155Z,10.13
2022-11-14T19:04:02.223Z,10.73
2022-11-14T19:06:36.999Z,11.23
2022-11-14T19:09:16.476Z,11.18
2022-11-14T19:12:02.358Z,14.75
2022-11-14T19:14:29.145Z,12.77
2022-11-14T19:16:55.820Z,11.00
2022-11-14T19:19:23.893Z,10.82
2022-11-14T19:21:50.986Z,10.77
2022-11-14T19:24:17.880Z,11.10
2022-11-14T19:26:44.889Z,10.13
2022-11-14T19:29:13.791Z,10.38
2022-11-14T19:31:41.964Z,10.57
2022-11-14T19:34:10.022Z,11.18
2022-11-14T19:39:23.901Z,11.07
2022-11-14T19:41:50.589Z,12.90
2022-11-14T19:44:17.352Z,13.07
2022-11-14T19:46:47.484Z,13.57
2022-11-14T19:49:14.919Z,12.65
2022-11-14T19:51:41.818Z,11.57
2022-11-14T19:54:09.969Z,12.07
2022-11-14T19:56:36.755Z,11.70
2022-11-14T19:59:09.609Z,12.32
2022-11-14T20:01:42.132Z,12.45
2022-11-14T20:04:12.712Z,11.82
2022-11-14T20:06:44.491Z,11.27
2022-11-14T20:09:11.424Z,11.82
2022-11-14T20:11:38.216Z,11.93
2022-11-14T20:14:05.682Z,12.10
2022-11-14T20:16:35.067Z,12.05
2022-11-14T20:19:03.184Z,11.50
2022-11-14T20:21:35.203Z,14.88
2022-11-14T20:24:01.982Z,17.33
2022-11-14T20:26:29.935Z,11.52
2022-11-14T20:28:56.769Z,14.30
2022-11-14T20:31:27.895Z,13.52
2022-11-14T20:33:55.583Z,11.10
2022-11-14T20:36:24.651Z,11.25
2022-11-14T20:38:52.198Z,10.15
2022-11-14T20:41:19.622Z,10.68
2022-11-14T20:43:46.331Z,11.18
2022-11-14T20:46:21.606Z,9.10
2022-11-14T20:48:49.161Z,9.77
2022-11-14T20:51:20.731Z,8.75
2022-11-14T20:53:48.451Z,9.75
2022-11-14T20:56:16.460Z,9.70
2022-11-14T20:58:51.255Z,8.75
2022-11-14T21:01:18.529Z,9.18
2022-11-14T21:03:45.725Z,8.63
2022-11-14T21:06:13.727Z,9.25
2022-11-14T21:08:41.207Z,9.75
2022-11-14T21:11:29.777Z,8.25
2022-11-14T21:13:56.484Z,9.88
2022-11-14T21:16:34.593Z,9.50
2022-11-14T21:19:02.167Z,9.50
2022-11-14T21:21:30.631Z,9.15
2022-11-14T21:23:57.703Z,9.38
2022-11-14T21:26:26.775Z,9.50
2022-11-14T21:28:56.277Z,9.90
2022-11-14T21:31:25.215Z,9.93
2022-11-14T21:33:57.369Z,9.32
2022-11-14T21:39:15.286Z,8.25
2022-11-14T21:41:43.035Z,8.25
2022-11-14T21:44:16.531Z,8.00
2022-11-14T21:46:45.465Z,7.30
2022-11-14T21:49:12.531Z,7.85
2022-11-14T21:51:40.450Z,7.30
2022-11-14T21:54:07.390Z,8.00
2022-11-14T21:56:36.181Z,6.88
2022-11-14T21:59:15.554Z,7.18
2022-11-14T22:02:07.466Z,7.20
2022-11-14T22:04:35.122Z,7.43
2022-11-14T22:07:04.360Z,7.20
2022-11-14T22:09:31.659Z,7.60
2022-11-14T22:11:59.379Z,7.07
2022-11-14T22:14:26.365Z,6.88
2022-11-14T22:16:53.235Z,7.65
2022-11-14T22:19:20.043Z,6.85
2022-11-14T22:21:49.182Z,7.28
2022-11-14T22:24:15.895Z,6.88
2022-11-14T22:26:42.632Z,8.05
2022-11-14T22:29:09.391Z,7.80
2022-11-14T22:31:38.133Z,8.25
2022-11-14T22:34:05.221Z,7.13
2022-11-14T22:36:33.075Z,8.40
2022-11-14T22:38:59.880Z,8.45
2022-11-14T22:41:32.287Z,8.73
2022-11-14T22:44:01.253Z,8.70
2022-11-14T22:46:28.099Z,8.10
2022-11-14T22:48:55.287Z,8.27
2022-11-14T22:51:28.540Z,8.73
2022-11-14T22:53:59.148Z,9.97
2022-11-14T22:56:28.512Z,9.30
2022-11-14T22:58:56.235Z,8.52
2022-11-14T23:01:26.246Z,8.05
2022-11-14T23:03:55.767Z,9.05
2022-11-14T23:06:23.076Z,9.00
2022-11-14T23:08:50.852Z,9.40
2022-11-14T23:11:26.387Z,8.63
2022-11-14T23:13:55.644Z,9.32
2022-11-14T23:16:27.882Z,9.40
2022-11-14T23:18:56.573Z,9.48
2022-11-14T23:21:26.462Z,7.90
2022-11-14T23:23:56.803Z,8.75
2022-11-14T23:26:24.533Z,8.60
2022-11-14T23:28:51.470Z,8.30
2022-11-14T23:31:19.095Z,7.38
2022-11-14T23:33:47.037Z,9.35
2022-11-14T23:36:14.222Z,9.27
2022-11-14T23:38:41.457Z,9.40
2022-11-14T23:41:15.792Z,8.70
2022-11-14T23:43:42.588Z,8.55
2022-11-14T23:46:09.372Z,8.30
2022-11-14T23:48:36.054Z,8.35
2022-11-14T23:51:03.006Z,9.45
2022-11-14T23:53:30.712Z,8.90
2022-11-14T23:55:59.760Z,8.15
2022-11-14T23:58:27.788Z,9.52
